Time;durP1;ratioP1;P1;durP2;ratioP2;P2;SDS_P1;SDS_P2;PMS_P1;PMS_P2;Temp;Humidity;BMP_temperature;BMP_pressure;BME280_temperature;BME280_humidity;BME280_pressure;Samples;Min_cycle;Max_cycle;Signal;HPM_P1;HPM_P2
2024/01/10 00:00:05;;;;;;;13.75;8.10;;;;;;;;;;5070056;28;20052;-60
2024/01/10 00:02:34;;;;;;;12.57;6.88;;;;;;;;;;5069080;28;20037;-61
2024/01/10 00:05:03;;;;;;;15.25;8.25;;;;;;;;;;5065944;28;20074;-62
2024/01/10 00:07:32;;;;;;;19.50;9.02;;;;;;;;;;5066805;28;20040;-62
2024/01/10 00:10:01;;;;;;;13.32;7.60;;;;;;;;;;5064955;28;20131;-61
2024/01/10 00:12:34;;;;;;;17.40;7.78;;;;;;;;;;5069684;28;20052;-61
2024/01/10 00:15:03;;;;;;;17.48;8.20;;;;;;;;;;5063554;28;20229;-62
2024/01/10 00:17:32;;;;;;;18.40;8.48;;;;;;;;;;5067438;28;20048;-61
2024/01/10 00:20:02;;;;;;;18.67;8.90;;;;;;;;;;5069104;28;20049;-61
2024/01/10 00:22:31;;;;;;;20.42;9.40;;;;;;;;;;5068029;28;20325;-60
2024/01/10 00:24:59;;;;;;;17.35;7.68;;;;;;;;;;5068949;28;20144;-60
2024/01/10 00:27:28;;;;;;;24.30;9.38;;;;;;;;;;5068608;28;20459;-60
2024/01/10 00:29:57;;;;;;;23.65;8.85;;;;;;;;;;5066229;28;20102;-61
2024/01/10 00:32:25;;;;;;;17.63;8.60;;;;;;;;;;5065801;28;20142;-61
2024/01/10 00:34:53;;;;;;;17.92;8.70;;;;;;;;;;5069066;28;20076;-60
2024/01/10 00:37:23;;;;;;;17.15;8.85;;;;;;;;;;5063473;28;20064;-61
2024/01/10 00:39:52;;;;;;;18.52;9.35;;;;;;;;;;5069757;28;20041;-61
2024/01/10 00:42:20;;;;;;;22.30;9.48;;;;;;;;;;5068495;28;20047;-60
2024/01/10 00:44:48;;;;;;;17.23;8.32;;;;;;;;;;5064278;28;20527;-61
2024/01/10 00:47:17;;;;;;;20.27;8.63;;;;;;;;;;5066072;28;20086;-61
2024/01/10 00:49:45;;;;;;;27.92;9.93;;;;;;;;;;5066641;28;20040;-61
2024/01/10 00:52:14;;;;;;;17.58;8.98;;;;;;;;;;5064934;28;20051;-61
2024/01/10 00:54:45;;;;;;;17.00;9.35;;;;;;;;;;5068752;28;20044;-61
2024/01/10 00:57:14;;;;;;;15.85;10.27;;;;;;;;;;5068317;28;20074;-60
2024/01/10 00:59:42;;;;;;;22.58;9.27;;;;;;;;;;5068692;28;20036;-60
2024/01/10 01:02:11;;;;;;;16.65;8.98;;;;;;;;;;5067833;28;20201;-61
2024/01/10 01:04:39;;;;;;;19.10;9.20;;;;;;;;;;5068434;28;20057;-62
2024/01/10 01:07:08;;;;;;;21.30;10.13;;;;;;;;;;5067485;28;20123;-62
2024/01/10 01:09:36;;;;;;;22.92;9.63;;;;;;;;;;5064373;28;20844;-62
2024/01/10 01:12:06;;;;;;;18.13;8.88;;;;;;;;;;5065212;28;20051;-61
2024/01/10 01:14:35;;;;;;;16.58;8.32;;;;;;;;;;5066894;28;20130;-62
2024/01/10 01:17:03;;;;;;;18.00;8.55;;;;;;;;;;5063650;28;20053;-61
2024/01/10 01:19:31;;;;;;;21.00;9.32;;;;;;;;;;5068629;28;20260;-62
2024/01/10 01:22:00;;;;;;;21.45;9.60;;;;;;;;;;5066601;28;20048;-62
2024/01/10 01:24:28;;;;;;;20.75;10.05;;;;;;;;;;5068599;28;20045;-61
2024/01/10 01:26:57;;;;;;;19.40;9.02;;;;;;;;;;5065791;28;20106;-61
2024/01/10 01:29:28;;;;;;;19.20;8.70;;;;;;;;;;5067084;28;20481;-62
2024/01/10 01:31:57;;;;;;;15.32;7.68;;;;;;;;;;5065241;28;20040;-61
2024/01/10 01:34:25;;;;;;;18.67;8.88;;;;;;;;;;5067334;28;20515;-62
2024/01/10 01:36:53;;;;;;;19.98;10.30;;;;;;;;;;5066988;28;20044;-61
2024/01/10 01:39:22;;;;;;;16.83;9.07;;;;;;;;;;5065218;28;20052;-61
2024/01/10 01:41:50;;;;;;;19.00;8.98;;;;;;;;;;5065144;28;20070;-61
2024/01/10 01:44:18;;;;;;;20.02;9.52;;;;;;;;;;5067946;28;20044;-62
2024/01/10 01:46:49;;;;;;;17.88;8.95;;;;;;;;;;5065913;28;20401;-61
2024/01/10 01:49:17;;;;;;;22.98;9.35;;;;;;;;;;5066537;28;20480;-61
2024/01/10 01:51:46;;;;;;;12.15;7.35;;;;;;;;;;5066899;28;20505;-62
2024/01/10 01:54:15;;;;;;;15.57;8.77;;;;;;;;;;5066134;28;20047;-61
2024/01/10 01:56:43;;;;;;;15.45;8.75;;;;;;;;;;5065281;28;20072;-63
2024/01/10 01:59:12;;;;;;;16.85;8.57;;;;;;;;;;5065784;28;20086;-61
2024/01/10 02:01:41;;;;;;;19.25;8.98;;;;;;;;;;5066642;28;20074;-62
2024/01/10 02:04:11;;;;;;;18.10;8.48;;;;;;;;;;5068491;28;20148;-61
2024/01/10 02:06:40;;;;;;;16.35;8.55;;;;;;;;;;5062902;28;20044;-64
2024/01/10 02:09:08;;;;;;;17.95;9.48;;;;;;;;;;5059965;28;20492;-62
2024/01/10 02:11:37;;;;;;;22.67;9.07;;;;;;;;;;5061653;28;20056;-62
2024/01/10 02:14:05;;;;;;;18.27;8.20;;;;;;;;;;5065636;28;20098;-62
2024/01/10 02:16:34;;;;;;;15.93;8.20;;;;;;;;;;5067443;28;20048;-61
2024/01/10 02:19:02;;;;;;;18.20;8.07;;;;;;;;;;5065455;28;20444;-62
2024/01/10 02:21:32;;;;;;;15.25;8.30;;;;;;;;;;5065964;28;20059;-62
2024/01/10 02:24:00;;;;;;;18.30;7.63;;;;;;;;;;5066174;28;20129;-61
2024/01/10 02:26:30;;;;;;;19.93;9.07;;;;;;;;;;5065764;28;20448;-61
2024/01/10 02:28:58;;;;;;;20.65;9.55;;;;;;;;;;5066829;28;20102;-61
2024/01/10 02:31:27;;;;;;;15.88;8.60;;;;;;;;;;5066886;28;20056;-62
2024/01/10 02:33:54;;;;;;;15.30;7.82;;;;;;;;;;5065068;28;20149;-61
2024/01/10 02:36:23;;;;;;;16.95;7.28;;;;;;;;;;5066837;28;20323;-62
2024/01/10 02:38:51;;;;;;;15.02;8.45;;;;;;;;;;5064758;28;20609;-63
2024/01/10 02:41:20;;;;;;;18.15;9.18;;;;;;;;;;5067457;28;20079;-62
2024/01/10 02:43:50;;;;;;;14.38;8.25;;;;;;;;;;5061854;28;20098;-63
2024/01/10 02:46:19;;;;;;;16.63;8.07;;;;;;;;;;5066743;28;20044;-62
2024/01/10 02:48:48;;;;;;;15.57;7.93;;;;;;;;;;5066779;28;20133;-61
2024/01/10 02:51:16;;;;;;;16.25;8.05;;;;;;;;;;5066144;28;20080;-62
2024/01/10 02:53:45;;;;;;;16.08;7.00;;;;;;;;;;5065335;28;20044;-61
2024/01/10 02:56:13;;;;;;;25.27;9.35;;;;;;;;;;5066754;28;20060;-62
2024/01/10 02:58:41;;;;;;;12.57;7.97;;;;;;;;;;5067190;28;20135;-62
2024/01/10 03:01:11;;;;;;;19.98;9.07;;;;;;;;;;5066185;28;20421;-61
2024/01/10 03:03:40;;;;;;;17.90;8.93;;;;;;;;;;5065136;28;20618;-62
2024/01/10 03:06:08;;;;;;;17.60;8.68;;;;;;;;;;5066465;28;20052;-61
2024/01/10 03:08:36;;;;;;;20.63;8.45;;;;;;;;;;5063046;28;20040;-61
2024/01/10 03:11:05;;;;;;;17.13;8.10;;;;;;;;;;5068133;28;20048;-62
2024/01/10 03:13:33;;;;;;;14.10;7.15;;;;;;;;;;5069844;28;20048;-62
2024/01/10 03:16:02;;;;;;;16.98;8.63;;;;;;;;;;5067754;28;20059;-61
2024/01/10 03:18:32;;;;;;;18.40;8.23;;;;;;;;;;5068735;28;20064;-62
2024/01/10 03:21:00;;;;;;;18.05;7.90;;;;;;;;;;5069361;28;20058;-61
2024/01/10 03:23:28;;;;;;;17.23;8.30;;;;;;;;;;5070048;28;20052;-61
2024/01/10 03:25:57;;;;;;;15.30;7.82;;;;;;;;;;5070010;28;20133;-62
2024/01/10 03:28:26;;;;;;;17.50;9.10;;;;;;;;;;5070391;28;20056;-62
2024/01/10 03:30:54;;;;;;;19.48;8.40;;;;;;;;;;5070141;28;20084;-63
2024/01/10 03:33:22;;;;;;;15.95;8.40;;;;;;;;;;5070645;28;20083;-61
2024/01/10 03:35:52;;;;;;;21.52;9.68;;;;;;;;;;5070810;28;20545;-62
2024/01/10 03:38:20;;;;;;;18.98;8.90;;;;;;;;;;5070266;28;20102;-61
2024/01/10 03:40:49;;;;;;;18.60;8.60;;;;;;;;;;5070166;28;20044;-62
2024/01/10 03:43:17;;;;;;;20.60;9.73;;;;;;;;;;5069764;28;20047;-61
2024/01/10 03:45:46;;;;;;;14.52;7.38;;;;;;;;;;5070171;28;20547;-62
2024/01/10 03:48:14;;;;;;;15.95;7.88;;;;;;;;;;5069782;28;20082;-62
2024/01/10 03:50:42;;;;;;;20.63;9.20;;;;;;;;;;5069881;28;20501;-62
2024/01/10 03:53:12;;;;;;;16.98;7.70;;;;;;;;;;5069065;28;20137;-62
2024/01/10 03:55:41;;;;;;;21.90;9.13;;;;;;;;;;5069283;28;20127;-61
2024/01/10 03:58:09;;;;;;;15.80;8.23;;;;;;;;;;5069146;28;20402;-62
2024/01/10 04:00:37;;;;;;;19.58;7.85;;;;;;;;;;5069670;28;20044;-61
2024/01/10 04:03:06;;;;;;;18.83;8.60;;;;;;;;;;5068272;28;20118;-62
2024/01/10 04:05:34;;;;;;;19.77;8.45;;;;;;;;;;5067025;28;20049;-62
2024/01/10 04:08:03;;;;;;;19.33;8.70;;;;;;;;;;5066694;28;20051;-62
2024/01/10 04:10:33;;;;;;;18.15;8.10;;;;;;;;;;5067187;28;20047;-62
2024/01/10 04:13:02;;;;;;;24.65;10.95;;;;;;;;;;5068011;28;20045;-62
2024/01/10 04:15:30;;;;;;;18.15;8.98;;;;;;;;;;5065778;28;20072;-63
2024/01/10 04:17:58;;;;;;;24.90;9.95;;;;;;;;;;5067532;28;20139;-62
2024/01/10 04:20:27;;;;;;;21.92;9.30;;;;;;;;;;5067406;28;20052;-62
2024/01/10 04:22:55;;;;;;;21.73;8.40;;;;;;;;;;5068686;28;20055;-61
2024/01/10 04:25:24;;;;;;;19.50;10.23;;;;;;;;;;5067648;28;20489;-62
2024/01/10 04:27:53;;;;;;;18.98;9.45;;;;;;;;;;5068084;28;20049;-62
2024/01/10 04:30:22;;;;;;;18.88;8.95;;;;;;;;;;5068054;28;20102;-62
2024/01/10 04:32:50;;;;;;;16.60;7.35;;;;;;;;;;5067637;28;20052;-62
2024/01/10 04:35:19;;;;;;;20.08;8.68;;;;;;;;;;5065868;28;20045;-62
2024/01/10 04:37:47;;;;;;;21.42;9.30;;;;;;;;;;5069915;28;20037;-61
2024/01/10 04:40:16;;;;;;;23.92;9.77;;;;;;;;;;5068303;28;20470;-62
2024/01/10 04:42:44;;;;;;;28.30;10.10;;;;;;;;;;5068375;28;20110;-64
2024/01/10 04:45:14;;;;;;;17.10;7.88;;;;;;;;;;5067351;28;20044;-62
2024/01/10 04:47:42;;;;;;;18.30;8.95;;;;;;;;;;5068537;28;20067;-62
2024/01/10 04:50:11;;;;;;;24.98;9.35;;;;;;;;;;5066588;28;20055;-62
2024/01/10 04:52:42;;;;;;;20.48;8.57;;;;;;;;;;5069216;28;20398;-62
2024/01/10 04:55:10;;;;;;;19.25;9.55;;;;;;;;;;5066617;28;20095;-63
2024/01/10 04:57:39;;;;;;;20.30;8.63;;;;;;;;;;5062606;28;20113;-61
2024/01/10 05:00:08;;;;;;;19.83;8.57;;;;;;;;;;5064084;28;20048;-63
2024/01/10 05:02:38;;;;;;;22.13;8.70;;;;;;;;;;5067686;28;20394;-63
2024/01/10 05:05:07;;;;;;;22.50;9.05;;;;;;;;;;5064303;28;20067;-62
2024/01/10 05:07:36;;;;;;;18.48;7.97;;;;;;;;;;5067519;28;20354;-65
2024/01/10 05:10:04;;;;;;;20.88;9.10;;;;;;;;;;5064920;28;20502;-62
2024/01/10 05:12:33;;;;;;;22.25;9.15;;;;;;;;;;5067825;28;20196;-62
2024/01/10 05:15:01;;;;;;;24.55;9.75;;;;;;;;;;5067445;28;20431;-62
2024/01/10 05:17:29;;;;;;;19.33;9.02;;;;;;;;;;5068688;28;20049;-62
2024/01/10 05:19:59;;;;;;;22.20;8.65;;;;;;;;;;5067783;28;20135;-62
2024/01/10 05:22:28;;;;;;;15.55;8.48;;;;;;;;;;5067386;28;20371;-62
2024/01/10 05:24:56;;;;;;;18.80;6.78;;;;;;;;;;5068358;28;20064;-62
2024/01/10 05:27:24;;;;;;;21.45;9.38;;;;;;;;;;5067298;28;20044;-62
2024/01/10 05:29:53;;;;;;;23.50;8.77;;;;;;;;;;5068194;28;20090;-63
2024/01/10 05:32:21;;;;;;;18.13;8.70;;;;;;;;;;5066005;28;20083;-62
2024/01/10 05:34:50;;;;;;;21.25;8.00;;;;;;;;;;5065088;28;20542;-62
2024/01/10 05:37:20;;;;;;;18.88;8.85;;;;;;;;;;5067799;28;20052;-62
2024/01/10 05:39:49;;;;;;;17.58;8.07;;;;;;;;;;5064107;28;20373;-62
2024/01/10 05:42:19;;;;;;;21.08;8.68;;;;;;;;;;5062277;28;20127;-62
2024/01/10 05:44:47;;;;;;;18.13;8.60;;;;;;;;;;5063930;28;20051;-62
2024/01/10 05:47:15;;;;;;;18.67;8.25;;;;;;;;;;5065374;28;20036;-62
2024/01/10 05:49:44;;;;;;;23.92;9.05;;;;;;;;;;5066541;28;20132;-62
2024/01/10 05:52:12;;;;;;;20.42;8.18;;;;;;;;;;5064126;28;20060;-61
2024/01/10 05:54:42;;;;;;;22.80;8.55;;;;;;;;;;5064693;28;20052;-62
2024/01/10 05:57:10;;;;;;;24.27;9.05;;;;;;;;;;5065359;28;20137;-62
2024/01/10 05:59:39;;;;;;;19.92;8.20;;;;;;;;;;5063028;28;20082;-62
2024/01/10 06:02:07;;;;;;;20.70;8.98;;;;;;;;;;5066047;28;20320;-62
2024/01/10 06:04:36;;;;;;;21.02;9.25;;;;;;;;;;5061342;28;20114;-62
2024/01/10 06:07:05;;;;;;;20.20;9.57;;;;;;;;;;5064198;28;20643;-62
2024/01/10 06:09:33;;;;;;;21.98;9.20;;;;;;;;;;5058912;28;20047;-62
2024/01/10 06:12:03;;;;;;;19.73;8.82;;;;;;;;;;5062784;28;20089;-61
2024/01/10 06:14:32;;;;;;;22.65;9.05;;;;;;;;;;5064238;28;20048;-61
2024/01/10 06:17:01;;;;;;;18.40;8.20;;;;;;;;;;5065241;28;20056;-61
2024/01/10 06:19:29;;;;;;;21.42;7.97;;;;;;;;;;5064899;28;20138;-61
2024/01/10 06:21:58;;;;;;;19.25;8.65;;;;;;;;;;5065153;28;20432;-60
2024/01/10 06:24:26;;;;;;;23.33;8.30;;;;;;;;;;5065836;28;20045;-60
2024/01/10 06:26:55;;;;;;;20.05;8.43;;;;;;;;;;5064960;28;20053;-61
2024/01/10 06:29:24;;;;;;;23.38;8.15;;;;;;;;;;5065862;28;20074;-60
2024/01/10 06:31:53;;;;;;;20.30;8.07;;;;;;;;;;5063776;28;20079;-61
2024/01/10 06:34:22;;;;;;;22.85;8.80;;;;;;;;;;5063901;28;20048;-61
2024/01/10 06:36:50;;;;;;;21.65;9.50;;;;;;;;;;5067322;28;20055;-61
2024/01/10 06:39:19;;;;;;;18.45;7.72;;;;;;;;;;5066805;28;20056;-61
2024/01/10 06:41:48;;;;;;;18.83;8.23;;;;;;;;;;5066253;28;20071;-61
2024/01/10 06:44:17;;;;;;;19.65;8.27;;;;;;;;;;5066687;28;20056;-61
2024/01/10 06:46:47;;;;;;;17.77;8.55;;;;;;;;;;5062830;28;20098;-62
2024/01/10 06:49:16;;;;;;;23.08;9.95;;;;;;;;;;5072011;28;20150;-61
2024/01/10 06:51:44;;;;;;;21.70;8.93;;;;;;;;;;5071573;28;20093;-58
2024/01/10 06:54:14;;;;;;;20.17;8.88;;;;;;;;;;5070565;28;20370;-61
2024/01/10 06:56:42;;;;;;;17.27;7.47;;;;;;;;;;5070426;28;20102;-61
2024/01/10 06:59:15;;;;;;;22.15;8.35;;;;;;;;;;5067815;28;20072;-60
2024/01/10 07:01:43;;;;;;;18.38;8.15;;;;;;;;;;5070441;28;20131;-60
2024/01/10 07:04:13;;;;;;;16.95;7.90;;;;;;;;;;5067762;28;20359;-61
2024/01/10 07:06:45;;;;;;;19.67;8.82;;;;;;;;;;5068154;28;20047;-61
2024/01/10 07:09:19;;;;;;;19.05;7.13;;;;;;;;;;5070330;28;20416;-60
2024/01/10 07:11:48;;;;;;;16.90;9.13;;;;;;;;;;5070444;28;20052;-61
2024/01/10 07:14:16;;;;;;;18.35;8.70;;;;;;;;;;5065553;28;20063;-61
2024/01/10 07:16:45;;;;;;;20.83;8.30;;;;;;;;;;5070950;28;20052;-60
2024/01/10 07:19:16;;;;;;;22.25;7.45;;;;;;;;;;5070551;28;20064;-61
2024/01/10 07:21:44;;;;;;;25.00;7.80;;;;;;;;;;5069052;28;20470;-61
2024/01/10 07:24:13;;;;;;;24.38;8.73;;;;;;;;;;5070381;28;20346;-61
2024/01/10 07:26:41;;;;;;;26.42;9.88;;;;;;;;;;5069539;28;20597;-60
2024/01/10 07:29:10;;;;;;;25.33;8.55;;;;;;;;;;5069291;28;20110;-61
2024/01/10 07:31:39;;;;;;;22.98;8.32;;;;;;;;;;5069053;28;20449;-61
2024/01/10 07:34:07;;;;;;;24.15;9.68;;;;;;;;;;5065483;28;20079;-62
2024/01/10 07:36:43;;;;;;;17.58;8.30;;;;;;;;;;5068340;28;20052;-61
2024/01/10 07:39:15;;;;;;;19.48;8.30;;;;;;;;;;5068129;28;20057;-61
2024/01/10 07:41:44;;;;;;;20.88;7.88;;;;;;;;;;5069294;28;20048;-62
2024/01/10 07:44:12;;;;;;;21.77;7.45;;;;;;;;;;5070450;28;20060;-62
2024/01/10 07:46:40;;;;;;;18.30;7.65;;;;;;;;;;5069038;28;20080;-62
2024/01/10 07:49:09;;;;;;;16.92;8.48;;;;;;;;;;5067622;28;20087;-62
2024/01/10 07:51:39;;;;;;;18.65;7.20;;;;;;;;;;5070413;28;20098;-61
2024/01/10 07:54:07;;;;;;;22.48;8.50;;;;;;;;;;5070275;28;20075;-61
2024/01/10 07:56:35;;;;;;;22.27;8.02;;;;;;;;;;5069964;28;20052;-61
2024/01/10 07:59:04;;;;;;;18.90;7.47;;;;;;;;;;5067621;28;20049;-61
2024/01/10 08:01:34;;;;;;;16.35;7.22;;;;;;;;;;5069782;28;20056;-61
2024/01/10 08:04:02;;;;;;;23.45;9.00;;;;;;;;;;5067063;28;20447;-61
2024/01/10 08:06:30;;;;;;;20.17;8.45;;;;;;;;;;5068458;28;20052;-61
2024/01/10 08:09:04;;;;;;;23.38;8.65;;;;;;;;;;5068773;28;20053;-62
2024/01/10 08:11:34;;;;;;;21.27;8.10;;;;;;;;;;5066324;28;20343;-61
2024/01/10 08:14:02;;;;;;;22.42;7.72;;;;;;;;;;5070133;28;20048;-61
2024/01/10 08:16:32;;;;;;;25.10;8.95;;;;;;;;;;5067436;28;20068;-65
2024/01/10 08:19:00;;;;;;;17.48;6.95;;;;;;;;;;5070689;28;20197;-62
2024/01/10 08:21:29;;;;;;;20.42;8.10;;;;;;;;;;5066951;28;20049;-64
2024/01/10 08:23:57;;;;;;;20.23;8.25;;;;;;;;;;5069627;28;20524;-62
2024/01/10 08:26:28;;;;;;;19.67;7.75;;;;;;;;;;5067703;28;20537;-63
2024/01/10 08:28:56;;;;;;;23.13;8.75;;;;;;;;;;5066695;28;20045;-60
2024/01/10 08:31:26;;;;;;;19.73;9.10;;;;;;;;;;5069520;28;20056;-60
2024/01/10 08:33:56;;;;;;;26.08;9.65;;;;;;;;;;5069658;28;20566;-62
2024/01/10 08:36:25;;;;;;;22.63;8.48;;;;;;;;;;5066055;28;20075;-62
2024/01/10 08:38:53;;;;;;;23.17;8.60;;;;;;;;;;5067500;28;20052;-62
2024/01/10 08:41:22;;;;;;;24.42;9.27;;;;;;;;;;5066885;28;20118;-61
2024/01/10 08:43:52;;;;;;;23.80;9.63;;;;;;;;;;5069738;28;20155;-61
2024/01/10 08:46:20;;;;;;;20.17;8.55;;;;;;;;;;5068439;28;20044;-62
2024/01/10 08:48:49;;;;;;;22.70;7.97;;;;;;;;;;5066335;28;20056;-61
2024/01/10 08:51:17;;;;;;;22.83;8.48;;;;;;;;;;5067566;28;20110;-61
2024/01/10 08:53:46;;;;;;;23.40;8.93;;;;;;;;;;5069181;28;20071;-61
2024/01/10 08:56:14;;;;;;;17.40;7.38;;;;;;;;;;5068166;28;20412;-62
2024/01/10 08:58:43;;;;;;;23.17;9.43;;;;;;;;;;5069273;28;20048;-61
2024/01/10 09:01:13;;;;;;;27.77;9.75;;;;;;;;;;5068723;28;20383;-61
2024/01/10 09:03:41;;;;;;;23.85;9.80;;;;;;;;;;5066567;28;20056;-62
2024/01/10 09:06:10;;;;;;;20.80;9.20;;;;;;;;;;5065701;28;20044;-62
2024/01/10 09:08:40;;;;;;;19.02;8.70;;;;;;;;;;5066572;28;20462;-60
2024/01/10 09:11:09;;;;;;;28.45;9.38;;;;;;;;;;5064930;28;20052;-60
2024/01/10 09:13:40;;;;;;;24.17;8.98;;;;;;;;;;5065866;28;20051;-61
2024/01/10 09:16:09;;;;;;;19.83;10.00;;;;;;;;;;5061740;28;20521;-61
2024/01/10 09:18:39;;;;;;;22.70;7.22;;;;;;;;;;5066012;28;20048;-61
2024/01/10 09:21:08;;;;;;;29.90;9.90;;;;;;;;;;5066350;28;20056;-61
2024/01/10 09:23:37;;;;;;;27.33;10.02;;;;;;;;;;5066037;28;20493;-62
2024/01/10 09:26:06;;;;;;;22.00;10.32;;;;;;;;;;5065875;28;20048;-62
2024/01/10 09:28:34;;;;;;;26.67;10.18;;;;;;;;;;5065055;28;20075;-63
2024/01/10 09:31:03;;;;;;;18.92;8.85;;;;;;;;;;5066023;28;20053;-61
2024/01/10 09:33:31;;;;;;;26.17;8.95;;;;;;;;;;5067487;28;20528;-60
2024/01/10 09:36:01;;;;;;;23.33;10.85;;;;;;;;;;5061657;28;20052;-63
2024/01/10 09:38:30;;;;;;;24.75;9.30;;;;;;;;;;5064314;28;20465;-61
2024/01/10 09:41:02;;;;;;;23.92;11.68;;;;;;;;;;5063026;28;20059;-60
2024/01/10 09:43:31;;;;;;;31.17;9.90;;;;;;;;;;5059880;28;20049;-61
2024/01/10 09:46:01;;;;;;;29.70;11.00;;;;;;;;;;5066680;28;20068;-61
2024/01/10 09:48:31;;;;;;;19.55;9.52;;;;;;;;;;5062970;28;20570;-62
2024/01/10 09:51:00;;;;;;;27.67;10.50;;;;;;;;;;5065771;28;20387;-60
2024/01/10 09:53:32;;;;;;;26.85;11.05;;;;;;;;;;5062391;28;20049;-61
2024/01/10 09:56:01;;;;;;;26.40;11.07;;;;;;;;;;5063478;28;20047;-61
2024/01/10 09:58:29;;;;;;;25.23;10.43;;;;;;;;;;5066899;28;20052;-61
2024/01/10 10:00:59;;;;;;;23.90;9.88;;;;;;;;;;5066594;28;20053;-62
2024/01/10 10:03:28;;;;;;;23.58;10.43;;;;;;;;;;5063753;28;20505;-61
2024/01/10 10:05:57;;;;;;;25.80;10.73;;;;;;;;;;5063805;28;20547;-61
2024/01/10 10:08:26;;;;;;;23.92;10.30;;;;;;;;;;5065111;28;20044;-62
2024/01/10 10:10:55;;;;;;;25.63;9.88;;;;;;;;;;5063124;28;20072;-61
2024/01/10 10:13:28;;;;;;;23.77;10.05;;;;;;;;;;5065355;28;20095;-63
2024/01/10 10:16:00;;;;;;;25.90;9.45;;;;;;;;;;5059509;28;20060;-62
2024/01/10 10:18:29;;;;;;;25.35;10.00;;;;;;;;;;5065480;28;20469;-60
2024/01/10 10:21:11;;;;;;;23.90;8.52;;;;;;;;;;5063108;28;20543;-60
2024/01/10 10:23:39;;;;;;;28.77;10.00;;;;;;;;;;5064265;28;20476;-62
2024/01/10 10:26:19;;;;;;;26.88;10.40;;;;;;;;;;5061019;28;20574;-61
2024/01/10 10:28:48;;;;;;;27.80;11.15;;;;;;;;;;5064767;28;20586;-60
2024/01/10 10:31:17;;;;;;;27.42;10.43;;;;;;;;;;5063855;28;20045;-65
2024/01/10 10:33:45;;;;;;;26.90;11.38;;;;;;;;;;5061464;28;20055;-62
2024/01/10 10:36:15;;;;;;;26.10;9.98;;;;;;;;;;5064120;28;20400;-61
2024/01/10 10:38:44;;;;;;;34.28;10.35;;;;;;;;;;5064692;28;20080;-60
2024/01/10 10:41:14;;;;;;;32.35;11.30;;;;;;;;;;5065766;28;20074;-60
2024/01/10 10:43:43;;;;;;;23.70;9.15;;;;;;;;;;5061951;28;21106;-61
2024/01/10 10:46:12;;;;;;;22.35;9.75;;;;;;;;;;5062173;28;20568;-63
2024/01/10 10:48:41;;;;;;;24.63;10.40;;;;;;;;;;5064103;28;20374;-61
2024/01/10 10:51:11;;;;;;;28.67;10.85;;;;;;;;;;5063816;28;20052;-61
2024/01/10 10:53:41;;;;;;;25.25;10.27;;;;;;;;;;5064156;28;20475;-63
2024/01/10 10:56:09;;;;;;;26.33;10.27;;;;;;;;;;5061730;28;20078;-61
2024/01/10 10:58:40;;;;;;;26.40;11.50;;;;;;;;;;5066065;28;20070;-60
2024/01/10 11:01:09;;;;;;;27.05;11.10;;;;;;;;;;5065015;28;20553;-61
2024/01/10 11:03:39;;;;;;;29.13;10.95;;;;;;;;;;5062520;28;20068;-60
2024/01/10 11:06:08;;;;;;;26.48;9.90;;;;;;;;;;5065574;28;20056;-62
2024/01/10 11:08:38;;;;;;;24.10;10.77;;;;;;;;;;5064406;28;20048;-59
2024/01/10 11:11:09;;;;;;;25.90;11.43;;;;;;;;;;5063382;28;20044;-60
2024/01/10 11:13:56;;;;;;;29.85;11.07;;;;;;;;;;5062602;28;20075;-60
2024/01/10 11:16:46;;;;;;;28.23;11.05;;;;;;;;;;5062027;28;20394;-60
2024/01/10 11:19:29;;;;;;;28.00;10.98;;;;;;;;;;5063192;28;20463;-60
2024/01/10 11:22:01;;;;;;;35.55;11.18;;;;;;;;;;5064732;28;20056;-60
2024/01/10 11:24:30;;;;;;;25.58;11.10;;;;;;;;;;5062492;28;20048;-61
2024/01/10 11:27:09;;;;;;;31.90;11.23;;;;;;;;;;5064645;28;20355;-62
2024/01/10 11:29:39;;;;;;;30.33;10.88;;;;;;;;;;5063024;28;20452;-60
2024/01/10 11:32:14;;;;;;;28.13;10.82;;;;;;;;;;5064908;28;20290;-61
2024/01/10 11:34:50;;;;;;;27.70;10.63;;;;;;;;;;5069298;28;20139;-60
2024/01/10 11:37:18;;;;;;;26.02;11.02;;;;;;;;;;5066963;28;20159;-62
2024/01/10 11:39:47;;;;;;;30.85;11.07;;;;;;;;;;5068855;28;20048;-60
2024/01/10 11:42:23;;;;;;;25.98;10.38;;;;;;;;;;5065651;28;20452;-66
2024/01/10 11:44:51;;;;;;;26.42;12.02;;;;;;;;;;5036612;28;20053;-62
2024/01/10 11:47:22;;;;;;;27.88;11.57;;;;;;;;;;5036285;28;20432;-65
2024/01/10 11:49:58;;;;;;;30.98;12.25;;;;;;;;;;5042787;28;20044;-62
2024/01/10 11:52:34;;;;;;;26.45;11.63;;;;;;;;;;5065734;28;20048;-60
2024/01/10 11:55:04;;;;;;;25.98;11.45;;;;;;;;;;5062876;28;20056;-63
2024/01/10 11:57:33;;;;;;;27.30;12.10;;;;;;;;;;5066814;28;20137;-63
2024/01/10 12:00:05;;;;;;;28.52;10.85;;;;;;;;;;5066782;28;20049;-60
2024/01/10 12:02:35;;;;;;;26.33;10.30;;;;;;;;;;5067880;28;20056;-61
2024/01/10 12:05:04;;;;;;;25.42;10.15;;;;;;;;;;5061661;28;20099;-60
2024/01/10 12:07:33;;;;;;;27.25;11.32;;;;;;;;;;5068418;28;20048;-61
2024/01/10 12:10:01;;;;;;;28.95;12.25;;;;;;;;;;5064416;28;20489;-60
2024/01/10 12:12:30;;;;;;;27.77;11.50;;;;;;;;;;5064714;28;20052;-63
2024/01/10 12:14:58;;;;;;;24.58;10.95;;;;;;;;;;5066955;28;20078;-59
2024/01/10 12:17:28;;;;;;;25.45;11.18;;;;;;;;;;5066008;28;20072;-63
2024/01/10 12:19:59;;;;;;;26.58;10.73;;;;;;;;;;5066792;28;20463;-61
2024/01/10 12:22:27;;;;;;;24.50;11.00;;;;;;;;;;5065026;28;20056;-62
2024/01/10 12:24:55;;;;;;;24.45;10.15;;;;;;;;;;5063596;28;20603;-59
2024/01/10 12:27:24;;;;;;;28.25;11.85;;;;;;;;;;5065437;28;20121;-60
2024/01/10 12:29:54;;;;;;;20.58;9.93;;;;;;;;;;5065410;28;20055;-62
2024/01/10 12:32:23;;;;;;;28.17;12.07;;;;;;;;;;5066294;28;20106;-61
2024/01/10 12:34:56;;;;;;;28.23;10.02;;;;;;;;;;5067814;28;20051;-60
2024/01/10 12:37:26;;;;;;;28.77;11.02;;;;;;;;;;5066477;28;20041;-60
2024/01/10 12:39:55;;;;;;;30.33;12.05;;;;;;;;;;5067103;28;20060;-61
2024/01/10 12:42:24;;;;;;;31.95;11.75;;;;;;;;;;5065440;28;20485;-61
2024/01/10 12:44:53;;;;;;;22.50;10.18;;;;;;;;;;5067111;28;20045;-60
2024/01/10 12:47:21;;;;;;;26.83;11.45;;;;;;;;;;5067050;28;20449;-60
2024/01/10 12:49:50;;;;;;;28.77;11.27;;;;;;;;;;5068116;28;20048;-66
2024/01/10 12:52:21;;;;;;;26.90;11.32;;;;;;;;;;5069129;28;20123;-61
2024/01/10 12:54:53;;;;;;;29.77;12.25;;;;;;;;;;5063529;28;20174;-62
2024/01/10 12:57:23;;;;;;;24.77;10.35;;;;;;;;;;5066126;28;20043;-61
2024/01/10 12:59:52;;;;;;;27.88;11.23;;;;;;;;;;5064753;28;20203;-61
2024/01/10 13:02:20;;;;;;;31.60;10.80;;;;;;;;;;5067297;28;20061;-61
2024/01/10 13:04:49;;;;;;;25.60;11.25;;;;;;;;;;5065659;28;20405;-61
2024/01/10 13:07:18;;;;;;;20.77;10.02;;;;;;;;;;5066467;28;20501;-61
2024/01/10 13:09:46;;;;;;;26.35;10.43;;;;;;;;;;5065338;28;20131;-63
2024/01/10 13:12:16;;;;;;;23.33;10.43;;;;;;;;;;5065138;28;20044;-62
2024/01/10 13:14:44;;;;;;;32.13;12.05;;;;;;;;;;5066987;28;20041;-61
2024/01/10 13:17:13;;;;;;;23.92;10.90;;;;;;;;;;5062932;28;20110;-61
2024/01/10 13:19:43;;;;;;;31.30;12.43;;;;;;;;;;5065369;28;20058;-62
2024/01/10 13:22:13;;;;;;;32.20;11.88;;;;;;;;;;5060788;28;20052;-65
2024/01/10 13:24:42;;;;;;;34.60;12.23;;;;;;;;;;5064165;28;20045;-64
2024/01/10 13:27:10;;;;;;;31.63;11.85;;;;;;;;;;5067296;28;20105;-61
2024/01/10 13:29:40;;;;;;;28.85;12.05;;;;;;;;;;5067265;28;20052;-60
2024/01/10 13:32:10;;;;;;;23.02;10.30;;;;;;;;;;5067070;28;20408;-61
2024/01/10 13:34:39;;;;;;;33.42;11.07;;;;;;;;;;5061910;28;20090;-66
2024/01/10 13:37:07;;;;;;;30.23;11.65;;;;;;;;;;5064200;28;20055;-62
2024/01/10 13:39:36;;;;;;;27.48;10.85;;;;;;;;;;5064521;28;20048;-60
2024/01/10 13:42:04;;;;;;;24.50;11.38;;;;;;;;;;5063338;28;20052;-62
2024/01/10 13:44:33;;;;;;;24.92;10.63;;;;;;;;;;5064773;28;20057;-64
2024/01/10 13:47:03;;;;;;;23.92;9.32;;;;;;;;;;5064220;28;20052;-67
2024/01/10 13:49:31;;;;;;;26.05;10.77;;;;;;;;;;5063021;28;20132;-63
2024/01/10 13:52:00;;;;;;;31.40;11.60;;;;;;;;;;5066587;28;20098;-62
2024/01/10 13:54:28;;;;;;;27.33;11.77;;;;;;;;;;5063390;28;20051;-61
2024/01/10 13:56:57;;;;;;;24.60;9.85;;;;;;;;;;5063353;28;20176;-62
2024/01/10 13:59:25;;;;;;;24.33;9.88;;;;;;;;;;5065065;28;20105;-61
2024/01/10 14:01:54;;;;;;;27.30;10.25;;;;;;;;;;5063669;28;20070;-60
2024/01/10 14:04:23;;;;;;;27.08;10.77;;;;;;;;;;5063752;28;20144;-61
2024/01/10 14:06:52;;;;;;;30.10;11.05;;;;;;;;;;5062327;28;20067;-62
2024/01/10 14:09:20;;;;;;;29.08;10.05;;;;;;;;;;5065317;28;20118;-61
2024/01/10 14:11:49;;;;;;;23.60;10.43;;;;;;;;;;5062891;28;20044;-61
2024/01/10 14:14:18;;;;;;;26.38;10.48;;;;;;;;;;5063711;28;20466;-63
2024/01/10 14:16:50;;;;;;;29.52;11.35;;;;;;;;;;5061569;28;20048;-61
2024/01/10 14:19:19;;;;;;;30.98;11.23;;;;;;;;;;5065615;28;20052;-61
2024/01/10 14:21:49;;;;;;;31.00;12.05;;;;;;;;;;5063072;28;20075;-63
2024/01/10 14:24:17;;;;;;;27.33;11.45;;;;;;;;;;5059135;28;20321;-61
2024/01/10 14:26:47;;;;;;;33.78;11.55;;;;;;;;;;5060135;28;20051;-60
2024/01/10 14:29:15;;;;;;;25.23;11.05;;;;;;;;;;5063870;28;20105;-61
2024/01/10 14:31:43;;;;;;;25.52;10.02;;;;;;;;;;5066471;28;20071;-64
2024/01/10 14:34:17;;;;;;;25.35;10.60;;;;;;;;;;5063825;28;20068;-62
2024/01/10 14:36:45;;;;;;;28.83;11.77;;;;;;;;;;5063498;28;20088;-61